Time;durP1;ratioP1;P1;durP2;ratioP2;P2;SDS_P1;SDS_P2;PMS_P1;PMS_P2;Temp;Humidity;BMP_temperature;BMP_pressure;BME280_temperature;BME280_humidity;BME280_pressure;Samples;Min_cycle;Max_cycle;Signal;HPM_P1;HPM_P2
2022/12/02 00:00:23;;;;;;;;;;;;;;;41.13;nan;101308.78;5063508;28;19920;-59
2022/12/02 00:02:50;;;;;;;;;;;;;;;41.03;nan;101317.25;5069084;28;19931;-60
2022/12/02 00:05:20;;;;;;;;;;;;;;;41.27;nan;101313.97;5069492;28;19925;-60
2022/12/02 00:07:48;;;;;;;;;;;;;;;41.09;nan;101316.66;5069236;28;20367;-59
2022/12/02 00:10:33;;;;;;;;;;;;;;;40.70;nan;101310.25;5069176;28;20012;-61
2022/12/02 00:13:18;;;;;;;;;;;;;;;40.35;nan;101307.31;5067739;28;19921;-59
2022/12/02 00:15:46;;;;;;;;;;;;;;;39.37;nan;101315.56;5072255;28;19928;-61
2022/12/02 00:18:14;;;;;;;;;;;;;;;39.90;nan;101315.25;5068485;28;19926;-58
2022/12/02 00:20:41;;;;;;;;;;;;;;;39.33;nan;101316.91;5069305;28;20311;-59
2022/12/02 00:23:07;;;;;;;;;;;;;;;39.62;nan;101309.16;5066152;28;20018;-59
2022/12/02 00:25:34;;;;;;;;;;;;;;;39.53;nan;101300.50;5069300;28;19931;-60
2022/12/02 00:28:00;;;;;;;;;;;;;;;39.52;nan;101304.59;5103648;28;19965;-59
2022/12/02 00:30:27;;;;;;;;;;;;;;;39.16;nan;101308.44;5066280;28;19935;-58
2022/12/02 00:32:53;;;;;;;;;;;;;;;39.05;nan;101296.50;5066036;28;19934;-60
2022/12/02 00:35:22;;;;;;;;;;;;;;;38.88;nan;101307.09;5068118;28;19932;-58
2022/12/02 00:37:49;;;;;;;;;;;;;;;38.66;nan;101306.06;5103045;28;20450;-60
2022/12/02 00:40:16;;;;;;;;;;;;;;;38.52;nan;101314.94;5063474;28;19990;-59
2022/12/02 00:42:42;;;;;;;;;;;;;;;38.48;nan;101315.03;5065118;28;19962;-58
2022/12/02 00:47:54;;;;;;;;;;;;;;;38.33;nan;101308.09;5085775;28;19921;-60
2022/12/02 00:50:21;;;;;;;;;;;;;;;38.15;nan;101310.50;5071584;28;20025;-60
2022/12/02 00:52:48;;;;;;;;;;;;;;;38.03;nan;101303.47;5066966;28;19921;-59
2022/12/02 00:55:14;;;;;;;;;;;;;;;37.97;nan;101314.56;5071426;28;19921;-59
2022/12/02 00:57:40;;;;;;;;;;;;;;;37.92;nan;101305.78;5074764;28;20055;-59
2022/12/02 01:00:08;;;;;;;;;;;;;;;37.90;nan;101314.72;5067998;28;20375;-61
2022/12/02 01:02:34;;;;;;;;;;;;;;;37.80;nan;101315.75;5102373;27;19955;-60
2022/12/02 01:05:01;;;;;;;;;;;;;;;37.80;nan;101312.91;5072169;28;19968;-59
2022/12/02 01:07:29;;;;;;;;;;;;;;;37.70;nan;101317.53;5069437;28;19920;-57
2022/12/02 01:09:55;;;;;;;;;;;;;;;37.64;nan;101312.81;5068111;28;19928;-58
2022/12/02 01:12:21;;;;;;;;;;;;;;;37.39;nan;101316.19;5069107;28;19974;-62
2022/12/02 01:14:48;;;;;;;;;;;;;;;37.36;nan;101306.53;5065880;28;19924;-61
2022/12/02 01:17:14;;;;;;;;;;;;;;;37.38;nan;101317.41;5072168;28;19956;-58
2022/12/02 01:19:40;;;;;;;;;;;;;;;37.29;nan;101323.66;5066815;28;19925;-57
2022/12/02 01:22:07;;;;;;;;;;;;;;;37.22;nan;101332.28;5073189;28;19925;-59
2022/12/02 01:24:34;;;;;;;;;;;;;;;37.13;nan;101334.88;5087420;28;19917;-59
2022/12/02 01:27:00;;;;;;;;;;;;;;;37.01;nan;101338.34;5073156;28;19970;-60
2022/12/02 01:29:26;;;;;;;;;;;;;;;37.03;nan;101336.69;5097830;27;20311;-59
2022/12/02 01:31:54;;;;;;;;;;;;;;;37.12;nan;101353.09;5074796;28;19921;-63
2022/12/02 01:34:20;;;;;;;;;;;;;;;36.98;nan;101351.31;5069755;28;19920;-59
2022/12/02 01:36:46;;;;;;;;;;;;;;;36.87;nan;101356.38;5103653;27;19925;-59
2022/12/02 01:39:13;;;;;;;;;;;;;;;36.77;nan;101357.31;5070390;28;20279;-60
2022/12/02 01:41:39;;;;;;;;;;;;;;;36.69;nan;101350.19;5073548;28;19927;-60
2022/12/02 01:44:08;;;;;;;;;;;;;;;36.60;nan;101350.72;5074609;28;19927;-60
2022/12/02 01:46:34;;;;;;;;;;;;;;;36.46;nan;101362.28;5069426;28;19960;-59
2022/12/02 01:49:01;;;;;;;;;;;;;;;36.40;nan;101369.66;5067327;28;19920;-59
2022/12/02 01:51:27;;;;;;;;;;;;;;;36.42;nan;101370.81;5068465;28;19982;-61
2022/12/02 01:53:54;;;;;;;;;;;;;;;36.53;nan;101371.47;5067138;28;19956;-60
2022/12/02 01:56:20;;;;;;;;;;;;;;;36.67;nan;101376.13;5072272;28;19921;-58
2022/12/02 01:58:47;;;;;;;;;;;;;;;36.67;nan;101378.94;5067154;28;20011;-59
2022/12/02 02:01:26;;;;;;;;;;;;;;;36.63;nan;101381.03;5065051;28;20382;-59
2022/12/02 02:03:53;;;;;;;;;;;;;;;36.64;nan;101385.47;5071087;28;20008;-61
2022/12/02 02:06:19;;;;;;;;;;;;;;;36.45;nan;101378.47;5069204;28;19943;-59
2022/12/02 02:08:46;;;;;;;;;;;;;;;36.32;nan;101377.47;5070887;28;19948;-60
2022/12/02 02:11:12;;;;;;;;;;;;;;;36.35;nan;101392.78;5066151;28;19920;-59
2022/12/02 02:13:39;;;;;;;;;;;;;;;36.31;nan;101393.66;5074294;28;19920;-59
2022/12/02 02:16:05;;;;;;;;;;;;;;;36.05;nan;101402.06;5070122;28;19920;-59
2022/12/02 02:18:32;;;;;;;;;;;;;;;36.10;nan;101410.91;5071498;28;19920;-59
2022/12/02 02:20:58;;;;;;;;;;;;;;;36.22;nan;101418.78;5069851;28;20367;-61
2022/12/02 02:23:25;;;;;;;;;;;;;;;36.18;nan;101420.88;5069101;28;19932;-60
2022/12/02 02:25:55;;;;;;;;;;;;;;;35.31;nan;101421.41;5069435;28;19927;-60
2022/12/02 02:28:26;;;;;;;;;;;;;;;34.63;nan;101413.44;5099597;27;19921;-60
2022/12/02 02:30:54;;;;;;;;;;;;;;;35.43;nan;101406.78;5094312;27;19928;-60
2022/12/02 02:33:23;;;;;;;;;;;;;;;34.57;nan;101406.63;5098432;27;19944;-63
2022/12/02 02:35:50;;;;;;;;;;;;;;;34.65;nan;101391.25;5071495;28;19932;-62
2022/12/02 02:38:18;;;;;;;;;;;;;;;33.31;nan;101398.97;5071737;28;20398;-61
2022/12/02 02:40:45;;;;;;;;;;;;;;;32.58;nan;101401.31;5067536;28;20010;-61
2022/12/02 02:43:14;;;;;;;;;;;;;;;32.98;nan;101395.34;5095870;27;20264;-60
2022/12/02 02:45:43;;;;;;;;;;;;;;;33.68;nan;101383.59;5066784;28;20015;-58
2022/12/02 02:48:11;;;;;;;;;;;;;;;34.53;nan;101384.06;5070967;28;19920;-62
2022/12/02 02:50:38;;;;;;;;;;;;;;;33.58;nan;101396.53;5077518;28;19990;-59
2022/12/02 02:53:05;;;;;;;;;;;;;;;33.22;nan;101396.56;5086833;28;19978;-60
2022/12/02 02:55:33;;;;;;;;;;;;;;;32.69;nan;101407.78;5104680;27;20385;-58
2022/12/02 02:58:14;;;;;;;;;;;;;;;33.67;nan;101408.19;5069673;28;19920;-61
2022/12/02 03:00:46;;;;;;;;;;;;;;;33.09;nan;101415.06;5068265;28;19931;-59
2022/12/02 03:03:15;;;;;;;;;;;;;;;34.12;nan;101402.81;5069519;28;19920;-60
2022/12/02 03:05:42;;;;;;;;;;;;;;;33.24;nan;101419.50;5072018;28;19921;-59
2022/12/02 03:08:09;;;;;;;;;;;;;;;33.96;nan;101417.41;5073830;28;19930;-59
2022/12/02 03:10:35;;;;;;;;;;;;;;;33.53;nan;101413.84;5077439;28;19916;-60
2022/12/02 03:13:02;;;;;;;;;;;;;;;33.32;nan;101429.56;5087434;28;19921;-59
2022/12/02 03:15:29;;;;;;;;;;;;;;;33.18;nan;101423.09;5080190;28;20019;-59
2022/12/02 03:17:55;;;;;;;;;;;;;;;32.96;nan;101417.47;5085222;28;19917;-60
2022/12/02 03:20:22;;;;;;;;;;;;;;;31.98;nan;101425.22;5074029;28;21189;-58
2022/12/02 03:22:48;;;;;;;;;;;;;;;33.37;nan;101434.00;5087860;28;19920;-59
2022/12/02 03:25:15;;;;;;;;;;;;;;;34.70;nan;101423.88;5086643;28;19997;-60
2022/12/02 03:27:41;;;;;;;;;;;;;;;34.72;nan;101435.56;5076920;28;20414;-60
2022/12/02 03:30:08;;;;;;;;;;;;;;;33.35;nan;101454.13;5079070;28;19920;-59
2022/12/02 03:32:35;;;;;;;;;;;;;;;33.17;nan;101456.09;5086492;28;20068;-61
2022/12/02 03:35:01;;;;;;;;;;;;;;;32.62;nan;101452.78;5083037;28;20001;-59
2022/12/02 03:37:28;;;;;;;;;;;;;;;31.48;nan;101463.41;5083585;28;19920;-59
2022/12/02 03:39:54;;;;;;;;;;;;;;;32.19;nan;101457.44;5079351;28;19921;-61
2022/12/02 03:42:21;;;;;;;;;;;;;;;32.22;nan;101465.09;5078269;28;19916;-60
2022/12/02 03:44:48;;;;;;;;;;;;;;;32.83;nan;101472.56;5063899;28;20383;-60
2022/12/02 03:47:14;;;;;;;;;;;;;;;33.91;nan;101457.28;5059777;28;20007;-60
2022/12/02 03:49:41;;;;;;;;;;;;;;;34.34;nan;101452.28;5063593;28;19921;-62
2022/12/02 03:52:07;;;;;;;;;;;;;;;34.36;nan;101463.19;5069904;28;19935;-61
2022/12/02 03:54:33;;;;;;;;;;;;;;;33.71;nan;101475.81;5067888;28;19966;-59
2022/12/02 03:56:59;;;;;;;;;;;;;;;32.61;nan;101474.50;5069470;28;19982;-62
2022/12/02 03:59:27;;;;;;;;;;;;;;;32.75;nan;101468.91;5066471;28;20891;-64
2022/12/02 04:01:54;;;;;;;;;;;;;;;32.60;nan;101477.72;5082126;28;19928;-59
2022/12/02 04:04:20;;;;;;;;;;;;;;;32.01;nan;101472.22;5065567;28;19923;-59
2022/12/02 04:06:46;;;;;;;;;;;;;;;32.80;nan;101486.59;5069387;28;20338;-60
2022/12/02 04:09:14;;;;;;;;;;;;;;;32.34;nan;101478.84;5066791;28;20326;-57
2022/12/02 04:11:40;;;;;;;;;;;;;;;32.34;nan;101474.00;5067692;28;20859;-59
2022/12/02 04:14:06;;;;;;;;;;;;;;;32.21;nan;101477.53;5065727;28;19967;-59
2022/12/02 04:16:33;;;;;;;;;;;;;;;32.22;nan;101482.75;5060959;28;19968;-60
2022/12/02 04:18:59;;;;;;;;;;;;;;;31.39;nan;101479.78;5061236;28;19931;-62
2022/12/02 04:21:25;;;;;;;;;;;;;;;31.39;nan;101471.34;5056914;28;19989;-61
2022/12/02 04:23:52;;;;;;;;;;;;;;;32.41;nan;101476.03;5078025;28;19942;-61
2022/12/02 04:26:19;;;;;;;;;;;;;;;31.03;nan;101490.66;5058878;28;19928;-59
2022/12/02 04:28:45;;;;;;;;;;;;;;;31.44;nan;101494.28;5063778;28;20047;-59
2022/12/02 04:31:11;;;;;;;;;;;;;;;31.37;nan;101497.03;5062335;28;20409;-60
2022/12/02 04:33:37;;;;;;;;;;;;;;;31.05;nan;101490.25;5059710;28;20349;-61
2022/12/02 04:36:04;;;;;;;;;;;;;;;31.54;nan;101496.38;5060888;28;19975;-60
2022/12/02 04:38:30;;;;;;;;;;;;;;;30.44;nan;101512.03;5060494;28;19924;-62
2022/12/02 04:40:56;;;;;;;;;;;;;;;31.74;nan;101510.19;5061886;28;20386;-62
2022/12/02 04:43:23;;;;;;;;;;;;;;;31.50;nan;101511.59;5056056;28;20577;-58
2022/12/02 04:45:49;;;;;;;;;;;;;;;32.56;nan;101500.22;5059604;28;19921;-60
2022/12/02 04:48:15;;;;;;;;;;;;;;;31.55;nan;101512.03;5059303;28;19970;-61
2022/12/02 04:50:41;;;;;;;;;;;;;;;32.63;nan;101505.06;5061747;28;19986;-61
2022/12/02 04:53:08;;;;;;;;;;;;;;;32.36;nan;101513.00;5063906;28;19924;-62
2022/12/02 04:55:34;;;;;;;;;;;;;;;32.34;nan;101512.59;5056234;28;19920;-58
2022/12/02 04:58:00;;;;;;;;;;;;;;;32.83;nan;101514.00;5057909;28;19995;-61
2022/12/02 05:00:27;;;;;;;;;;;;;;;33.68;nan;101519.75;5056593;28;20393;-60
2022/12/02 05:02:53;;;;;;;;;;;;;;;33.55;nan;101519.34;5062730;28;19920;-63
2022/12/02 05:05:19;;;;;;;;;;;;;;;33.09;nan;101515.66;5060286;28;19982;-63
2022/12/02 05:07:45;;;;;;;;;;;;;;;33.15;nan;101520.50;5059287;28;20004;-60
2022/12/02 05:10:11;;;;;;;;;;;;;;;33.59;nan;101519.38;5060339;28;19978;-60
2022/12/02 05:12:38;;;;;;;;;;;;;;;33.83;nan;101520.53;5075579;28;20292;-61
2022/12/02 05:15:04;;;;;;;;;;;;;;;34.14;nan;101507.59;5069715;28;19921;-60
2022/12/02 05:17:31;;;;;;;;;;;;;;;34.21;nan;101501.94;5064608;28;20379;-60
2022/12/02 05:19:58;;;;;;;;;;;;;;;34.36;nan;101502.72;5068977;28;19927;-61
2022/12/02 05:22:24;;;;;;;;;;;;;;;34.36;nan;101489.41;5071724;28;19943;-61
2022/12/02 05:24:51;;;;;;;;;;;;;;;34.36;nan;101489.41;5071981;28;19969;-60
2022/12/02 05:27:17;;;;;;;;;;;;;;;34.36;nan;101488.59;5084239;28;20303;-61
2022/12/02 05:29:43;;;;;;;;;;;;;;;34.39;nan;101496.25;5074046;28;19928;-61
2022/12/02 05:32:10;;;;;;;;;;;;;;;34.56;nan;101488.91;5071111;28;19920;-59
2022/12/02 05:34:36;;;;;;;;;;;;;;;34.57;nan;101484.88;5101823;27;19970;-60
2022/12/02 05:37:02;;;;;;;;;;;;;;;34.70;nan;101486.81;5068195;28;19920;-60
2022/12/02 05:39:29;;;;;;;;;;;;;;;34.81;nan;101495.22;5076403;28;19928;-60
2022/12/02 05:42:00;;;;;;;;;;;;;;;34.73;nan;101499.31;5069596;28;19927;-60
2022/12/02 05:44:27;;;;;;;;;;;;;;;34.77;nan;101505.72;5070331;28;19916;-60
2022/12/02 05:46:58;;;;;;;;;;;;;;;34.73;nan;101510.59;5073323;28;20019;-60
2022/12/02 05:49:24;;;;;;;;;;;;;;;33.96;nan;101529.41;5064099;28;19924;-61
2022/12/02 05:51:54;;;;;;;;;;;;;;;32.37;nan;101528.69;5074183;28;20815;-60
2022/12/02 05:54:20;;;;;;;;;;;;;;;32.88;nan;101534.16;5082438;28;20019;-60
2022/12/02 05:56:47;;;;;;;;;;;;;;;33.18;nan;101530.97;5070194;28;20391;-61
2022/12/02 05:59:15;;;;;;;;;;;;;;;32.22;nan;101524.16;5068431;28;20392;-60
2022/12/02 06:01:42;;;;;;;;;;;;;;;32.75;nan;101533.66;5079775;28;19939;-62
2022/12/02 06:04:13;;;;;;;;;;;;;;;31.52;nan;101526.84;5074070;28;19943;-59
2022/12/02 06:06:39;;;;;;;;;;;;;;;31.46;nan;101528.41;5071715;28;19924;-61
2022/12/02 06:09:13;;;;;;;;;;;;;;;32.71;nan;101523.59;5072342;28;20463;-61
2022/12/02 06:11:39;;;;;;;;;;;;;;;32.28;nan;101529.03;5074901;28;20336;-61
2022/12/02 06:14:10;;;;;;;;;;;;;;;33.08;nan;101522.50;5075053;28;19959;-61
2022/12/02 06:16:36;;;;;;;;;;;;;;;32.94;nan;101526.09;5070918;28;19973;-60
2022/12/02 06:19:08;;;;;;;;;;;;;;;33.29;nan;101522.53;5072526;28;19932;-60
2022/12/02 06:21:34;;;;;;;;;;;;;;;33.52;nan;101522.97;5070408;28;19921;-61
2022/12/02 06:24:00;;;;;;;;;;;;;;;33.50;nan;101527.41;5074438;28;19916;-61
2022/12/02 06:26:27;;;;;;;;;;;;;;;33.49;nan;101522.97;5100020;27;19929;-59
2022/12/02 06:29:01;;;;;;;;;;;;;;;33.43;nan;101531.03;5071202;28;20411;-59
2022/12/02 06:31:36;;;;;;;;;;;;;;;32.91;nan;101540.97;5069303;28;19932;-58
2022/12/02 06:34:21;;;;;;;;;;;;;;;33.07;nan;101523.72;5068161;28;19920;-58
2022/12/02 06:36:47;;;;;;;;;;;;;;;33.07;nan;101526.53;5068313;28;19928;-60
2022/12/02 06:39:19;;;;;;;;;;;;;;;33.18;nan;101530.97;5070325;28;19913;-57
2022/12/02 06:41:46;;;;;;;;;;;;;;;33.21;nan;101538.63;5067768;28;20407;-60
2022/12/02 06:47:26;;;;;;;;;;;;;;;32.64;nan;101548.88;5064971;28;20375;-59
2022/12/02 06:49:52;;;;;;;;;;;;;;;32.91;nan;101560.69;5068584;28;19931;-59
2022/12/02 06:52:23;;;;;;;;;;;;;;;31.90;nan;101552.88;5068154;28;20401;-59
2022/12/02 06:54:52;;;;;;;;;;;;;;;30.86;nan;101555.84;5070939;28;19978;-60
2022/12/02 06:57:19;;;;;;;;;;;;;;;30.81;nan;101559.81;5068984;28;20039;-60
2022/12/02 06:59:47;;;;;;;;;;;;;;;31.91;nan;101554.50;5068944;28;19928;-60
2022/12/02 07:02:26;;;;;;;;;;;;;;;31.97;nan;101552.13;5071986;28;19926;-59
2022/12/02 07:04:53;;;;;;;;;;;;;;;31.57;nan;101567.84;5063472;28;20011;-59
2022/12/02 07:07:26;;;;;;;;;;;;;;;31.67;nan;101578.38;5074060;28;19916;-59
2022/12/02 07:09:57;;;;;;;;;;;;;;;32.05;nan;101576.28;5073571;28;19927;-58
2022/12/02 07:12:31;;;;;;;;;;;;;;;32.25;nan;101577.63;5073370;28;20300;-59
2022/12/02 07:15:01;;;;;;;;;;;;;;;32.32;nan;101572.09;5074657;28;20052;-58
2022/12/02 07:17:39;;;;;;;;;;;;;;;32.59;nan;101571.81;5074252;28;19925;-58
2022/12/02 07:20:05;;;;;;;;;;;;;;;32.28;nan;101565.59;5071534;28;19921;-61
2022/12/02 07:22:36;;;;;;;;;;;;;;;32.70;nan;101573.47;5088204;28;20378;-58
2022/12/02 07:25:08;;;;;;;;;;;;;;;32.67;nan;101576.25;5080563;28;19916;-58
2022/12/02 07:27:36;;;;;;;;;;;;;;;32.43;nan;101574.94;5080298;28;19942;-60
2022/12/02 07:30:03;;;;;;;;;;;;;;;32.96;nan;101578.00;5089672;28;19985;-59
2022/12/02 07:32:29;;;;;;;;;;;;;;;32.99;nan;101584.84;5076616;28;19924;-60
2022/12/02 07:34:56;;;;;;;;;;;;;;;32.04;nan;101588.72;5083951;28;20011;-59
2022/12/02 07:37:22;;;;;;;;;;;;;;;31.47;nan;101591.84;5082101;28;19920;-59
2022/12/02 07:39:49;;;;;;;;;;;;;;;31.65;nan;101583.56;5074222;28;20089;-61
2022/12/02 07:42:15;;;;;;;;;;;;;;;31.56;nan;101583.09;5074537;28;19920;-60
2022/12/02 07:44:43;;;;;;;;;;;;;;;32.09;nan;101583.53;5087762;28;20004;-60
2022/12/02 07:47:09;;;;;;;;;;;;;;;32.46;nan;101582.59;5082140;28;19921;-59
2022/12/02 07:49:35;;;;;;;;;;;;;;;32.36;nan;101581.34;5079566;28;20302;-59
2022/12/02 07:52:02;;;;;;;;;;;;;;;32.87;nan;101590.84;5090380;28;19920;-60
2022/12/02 07:54:28;;;;;;;;;;;;;;;33.02;nan;101592.50;5063793;28;19931;-59
2022/12/02 07:56:54;;;;;;;;;;;;;;;32.89;nan;101596.91;5090008;28;19921;-60
2022/12/02 07:59:21;;;;;;;;;;;;;;;33.05;nan;101595.34;5087646;28;19922;-59
2022/12/02 08:01:47;;;;;;;;;;;;;;;32.96;nan;101588.47;5082626;28;19946;-59
2022/12/02 08:04:13;;;;;;;;;;;;;;;33.11;nan;101589.31;5085534;28;19916;-60
2022/12/02 08:06:39;;;;;;;;;;;;;;;32.75;nan;101591.97;5091720;28;20374;-60
2022/12/02 08:09:06;;;;;;;;;;;;;;;32.82;nan;101599.66;5085671;28;19924;-59
2022/12/02 08:11:33;;;;;;;;;;;;;;;32.59;nan;101589.50;5090363;28;19924;-60
2022/12/02 08:13:59;;;;;;;;;;;;;;;32.42;nan;101588.19;5080601;28;19916;-59
2022/12/02 08:16:25;;;;;;;;;;;;;;;32.25;nan;101580.44;5093370;28;19924;-59
2022/12/02 08:18:51;;;;;;;;;;;;;;;32.64;nan;101591.91;5083408;28;19942;-60
2022/12/02 08:21:18;;;;;;;;;;;;;;;32.72;nan;101589.97;5084790;28;19970;-60
2022/12/02 08:23:44;;;;;;;;;;;;;;;32.39;nan;101593.81;5090730;28;19916;-60
2022/12/02 08:26:10;;;;;;;;;;;;;;;32.69;nan;101596.38;5079945;28;19920;-60
2022/12/02 08:28:36;;;;;;;;;;;;;;;32.41;nan;101599.84;5091975;28;19920;-59
2022/12/02 08:31:03;;;;;;;;;;;;;;;30.80;nan;101603.09;5084694;28;19923;-58
2022/12/02 08:33:29;;;;;;;;;;;;;;;31.69;nan;101597.66;5083973;28;19920;-59
2022/12/02 08:35:55;;;;;;;;;;;;;;;31.91;nan;101587.41;5091886;28;19920;-60
2022/12/02 08:38:22;;;;;;;;;;;;;;;31.54;nan;101586.28;5079408;28;19959;-59
2022/12/02 08:40:48;;;;;;;;;;;;;;;31.76;nan;101592.13;5089980;28;19927;-59
2022/12/02 08:43:14;;;;;;;;;;;;;;;32.20;nan;101588.44;5085841;28;19916;-58
2022/12/02 08:45:40;;;;;;;;;;;;;;;31.54;nan;101589.09;5082573;28;20275;-59
2022/12/02 08:48:07;;;;;;;;;;;;;;;30.61;nan;101598.44;5092717;28;19916;-59
2022/12/02 08:50:33;;;;;;;;;;;;;;;31.47;nan;101600.28;5080140;28;19937;-59
2022/12/02 08:53:01;;;;;;;;;;;;;;;31.29;nan;101610.53;5088086;28;20433;-60
2022/12/02 08:55:27;;;;;;;;;;;;;;;28.53;nan;101622.19;5075511;28;19924;-59
2022/12/02 08:57:53;;;;;;;;;;;;;;;30.76;nan;101616.28;5075804;28;20031;-60
2022/12/02 09:00:20;;;;;;;;;;;;;;;31.51;nan;101609.53;5075577;28;19920;-59
2022/12/02 09:02:46;;;;;;;;;;;;;;;32.05;nan;101618.47;5075618;28;19920;-59
2022/12/02 09:05:12;;;;;;;;;;;;;;;32.10;nan;101615.28;5065402;28;19932;-59
2022/12/02 09:07:38;;;;;;;;;;;;;;;32.14;nan;101610.50;5075593;28;20003;-60
2022/12/02 09:10:06;;;;;;;;;;;;;;;30.74;nan;101601.84;5072943;28;19920;-60
2022/12/02 09:12:32;;;;;;;;;;;;;;;30.35;nan;101604.06;5075629;28;19932;-59
2022/12/02 09:14:59;;;;;;;;;;;;;;;31.32;nan;101606.94;5075445;28;19920;-59
2022/12/02 09:17:25;;;;;;;;;;;;;;;31.53;nan;101601.53;5075254;28;19991;-60
2022/12/02 09:19:51;;;;;;;;;;;;;;;31.77;nan;101599.34;5075286;28;19920;-60
2022/12/02 09:22:17;;;;;;;;;;;;;;;31.74;nan;101609.38;5075342;28;19920;-60
2022/12/02 09:24:43;;;;;;;;;;;;;;;31.71;nan;101610.13;5075393;28;19964;-59
2022/12/02 09:27:10;;;;;;;;;;;;;;;31.42;nan;101603.44;5075247;28;19959;-60
2022/12/02 09:29:36;;;;;;;;;;;;;;;31.12;nan;101611.09;5075145;28;20043;-59
2022/12/02 09:32:02;;;;;;;;;;;;;;;31.23;nan;101620.47;5075116;28;19927;-60
2022/12/02 09:34:29;;;;;;;;;;;;;;;31.40;nan;101613.44;5050044;28;19973;-59
2022/12/02 09:36:55;;;;;;;;;;;;;;;31.48;nan;101606.69;5075141;28;19923;-60
2022/12/02 09:39:21;;;;;;;;;;;;;;;31.33;nan;101602.94;5074858;28;19921;-60
2022/12/02 09:41:47;;;;;;;;;;;;;;;31.42;nan;101603.44;5075059;28;19927;-59
2022/12/02 09:44:14;;;;;;;;;;;;;;;29.38;nan;101601.59;5074821;28;19955;-59
2022/12/02 09:46:40;;;;;;;;;;;;;;;27.48;nan;101605.19;5074835;28;20287;-59
2022/12/02 09:49:06;;;;;;;;;;;;;;;28.21;nan;101604.66;5074872;28;20358;-59
2022/12/02 09:51:33;;;;;;;;;;;;;;;30.41;nan;101602.53;5074611;28;20068;-59
2022/12/02 09:53:59;;;;;;;;;;;;;;;30.35;nan;101598.47;5074631;28;19921;-59
2022/12/02 09:56:25;;;;;;;;;;;;;;;29.64;nan;101598.09;5074679;28;19924;-59
2022/12/02 09:58:54;;;;;;;;;;;;;;;30.42;nan;101584.53;5074714;28;19927;-59
2022/12/02 10:01:21;;;;;;;;;;;;;;;29.86;nan;101590.06;5074340;28;19921;-59
2022/12/02 10:03:48;;;;;;;;;;;;;;;30.67;nan;101593.31;5068565;28;19921;-58
2022/12/02 10:06:22;;;;;;;;;;;;;;;31.05;nan;101591.34;5072805;28;19917;-58
2022/12/02 10:08:48;;;;;;;;;;;;;;;30.95;nan;101593.66;5074508;28;19961;-58
2022/12/02 10:11:20;;;;;;;;;;;;;;;30.55;nan;101601.94;5074124;28;20393;-59
2022/12/02 10:13:46;;;;;;;;;;;;;;;31.15;nan;101599.09;5074239;28;20405;-59
2022/12/02 10:16:13;;;;;;;;;;;;;;;31.22;nan;101604.81;5073268;28;19921;-59
2022/12/02 10:18:39;;;;;;;;;;;;;;;31.29;nan;101595.69;5074188;28;19921;-59
2022/12/02 10:21:06;;;;;;;;;;;;;;;31.38;nan;101599.78;5074329;28;19923;-59
2022/12/02 10:23:32;;;;;;;;;;;;;;;31.22;nan;101591.56;5072835;28;20070;-59
2022/12/02 10:26:16;;;;;;;;;;;;;;;31.24;nan;101596.84;5073699;28;19916;-58
2022/12/02 10:28:56;;;;;;;;;;;;;;;31.19;nan;101600.78;5044849;28;19920;-59
2022/12/02 10:31:23;;;;;;;;;;;;;;;31.03;nan;101597.34;5071499;28;20292;-58
2022/12/02 10:33:59;;;;;;;;;;;;;;;31.10;nan;101589.03;5067698;28;19920;-58
2022/12/02 10:36:36;;;;;;;;;;;;;;;30.76;nan;101591.03;5073721;28;19924;-58
2022/12/02 10:39:23;;;;;;;;;;;;;;;31.03;nan;101593.72;5072680;28;19931;-59
2022/12/02 10:42:06;;;;;;;;;;;;;;;28.59;nan;101592.78;5072114;28;19963;-58
2022/12/02 10:44:34;;;;;;;;;;;;;;;30.47;nan;101591.78;5056366;28;19970;-59
2022/12/02 10:47:11;;;;;;;;;;;;;;;30.93;nan;101607.28;5072004;28;20412;-58
2022/12/02 10:49:42;;;;;;;;;;;;;;;29.73;nan;101609.84;5072141;28;19981;-60
2022/12/02 10:52:10;;;;;;;;;;;;;;;30.59;nan;101616.81;5072157;28;20355;-59
2022/12/02 10:54:39;;;;;;;;;;;;;;;31.08;nan;101616.69;5083841;28;19938;-58
2022/12/02 10:57:05;;;;;;;;;;;;;;;31.29;nan;101612.53;5082389;28;19927;-59
2022/12/02 10:59:32;;;;;;;;;;;;;;;31.31;nan;101613.75;5081160;28;20414;-59
2022/12/02 11:02:00;;;;;;;;;;;;;;;31.37;nan;101619.81;5090078;28;19990;-59
2022/12/02 11:04:27;;;;;;;;;;;;;;;31.29;nan;101624.56;5076648;28;19972;-59
2022/12/02 11:06:54;;;;;;;;;;;;;;;30.44;nan;101629.03;5086676;28;19973;-58
2022/12/02 11:09:21;;;;;;;;;;;;;;;30.96;nan;101630.97;5084052;28;19958;-60
2022/12/02 11:11:48;;;;;;;;;;;;;;;31.21;nan;101631.28;5077455;28;20356;-59
2022/12/02 11:14:33;;;;;;;;;;;;;;;31.19;nan;101642.09;5089910;28;19916;-60
2022/12/02 11:17:05;;;;;;;;;;;;;;;31.23;nan;101652.19;5081583;28;19920;-60
2022/12/02 11:19:34;;;;;;;;;;;;;;;31.22;nan;101652.56;5080971;28;20059;-60
2022/12/02 11:22:01;;;;;;;;;;;;;;;31.16;nan;101651.25;5089669;28;19920;-59
2022/12/02 11:24:27;;;;;;;;;;;;;;;31.14;nan;101643.22;5076688;28;20286;-59
2022/12/02 11:26:59;;;;;;;;;;;;;;;31.23;nan;101649.38;5085975;28;19916;-59
2022/12/02 11:29:25;;;;;;;;;;;;;;;31.14;nan;101634.81;5084440;28;19966;-59
2022/12/02 11:32:01;;;;;;;;;;;;;;;31.09;nan;101642.75;5077003;28;19916;-59
2022/12/02 11:34:41;;;;;;;;;;;;;;;29.49;nan;101657.84;5084703;28;19920;-59
2022/12/02 11:37:25;;;;;;;;;;;;;;;28.13;nan;101659.56;5084028;28;20294;-58
2022/12/02 11:40:01;;;;;;;;;;;;;;;30.06;nan;101659.69;5074671;28;19927;-58
2022/12/02 11:42:28;;;;;;;;;;;;;;;30.44;nan;101657.88;5076372;28;19920;-59
2022/12/02 11:45:10;;;;;;;;;;;;;;;30.82;nan;101670.88;5086018;28;19933;-58
2022/12/02 11:47:36;;;;;;;;;;;;;;;30.88;nan;101675.00;5085986;28;19920;-59
2022/12/02 11:50:12;;;;;;;;;;;;;;;30.89;nan;101668.19;5076278;28;19916;-59
2022/12/02 11:52:39;;;;;;;;;;;;;;;30.82;nan;101668.06;5088101;28;19947;-58
2022/12/02 11:55:14;;;;;;;;;;;;;;;30.93;nan;101657.81;5072718;28;19920;-57
2022/12/02 11:57:52;;;;;;;;;;;;;;;30.43;nan;101661.06;5073006;28;20382;-59
2022/12/02 12:00:20;;;;;;;;;;;;;;;30.51;nan;101657.97;5072555;28;19974;-57
2022/12/02 12:02:46;;;;;;;;;;;;;;;30.86;nan;101663.31;5072989;28;19917;-59
2022/12/02 12:05:12;;;;;;;;;;;;;;;30.97;nan;101667.09;5062980;28;20011;-59
2022/12/02 12:07:43;;;;;;;;;;;;;;;30.97;nan;101675.50;5072799;28;19921;-58
2022/12/02 12:10:29;;;;;;;;;;;;;;;30.74;nan;101682.41;5072533;28;19927;-57
2022/12/02 12:13:15;;;;;;;;;;;;;;;30.61;nan;101684.59;5072711;28;20310;-57
2022/12/02 12:15:52;;;;;;;;;;;;;;;30.50;nan;101683.63;5072710;28;19921;-58
2022/12/02 12:18:38;;;;;;;;;;;;;;;30.77;nan;101688.06;5072547;28;19924;-58
2022/12/02 12:21:05;;;;;;;;;;;;;;;30.63;nan;101699.88;5072683;28;19924;-58
2022/12/02 12:23:33;;;;;;;;;;;;;;;30.72;nan;101699.63;5072346;28;19966;-58
2022/12/02 12:26:00;;;;;;;;;;;;;;;30.89;nan;101707.50;5072521;28;19917;-57
2022/12/02 12:28:28;;;;;;;;;;;;;;;30.92;nan;101706.72;5072462;28;19920;-59
2022/12/02 12:30:55;;;;;;;;;;;;;;;30.61;nan;101719.09;5072507;28;19920;-57
2022/12/02 12:33:21;;;;;;;;;;;;;;;30.81;nan;101722.59;5069769;28;19970;-58
2022/12/02 12:35:48;;;;;;;;;;;;;;;30.26;nan;101724.94;5067007;28;19921;-57
2022/12/02 12:38:14;;;;;;;;;;;;;;;29.48;nan;101718.66;5072308;28;20003;-59
2022/12/02 12:40:40;;;;;;;;;;;;;;;29.87;nan;101717.78;5075830;28;19924;-58
2022/12/02 12:43:06;;;;;;;;;;;;;;;30.65;nan;101727.56;5076108;28;19921;-58
2022/12/02 12:45:33;;;;;;;;;;;;;;;30.79;nan;101730.59;5075823;28;20450;-57
2022/12/02 12:47:59;;;;;;;;;;;;;;;30.96;nan;101734.84;5075667;28;19916;-58
2022/12/02 12:50:25;;;;;;;;;;;;;;;30.82;nan;101727.03;5075676;28;19921;-58
2022/12/02 12:52:51;;;;;;;;;;;;;;;30.86;nan;101730.69;5076712;28;19924;-58
2022/12/02 12:55:18;;;;;;;;;;;;;;;30.84;nan;101724.66;5085438;28;19924;-58
2022/12/02 12:57:44;;;;;;;;;;;;;;;30.84;nan;101716.22;5090198;28;20404;-59
2022/12/02 13:00:11;;;;;;;;;;;;;;;30.86;nan;101719.47;5077845;28;20007;-59
2022/12/02 13:02:37;;;;;;;;;;;;;;;30.73;nan;101731.31;5080464;28;19927;-57
2022/12/02 13:05:03;;;;;;;;;;;;;;;30.92;nan;101731.19;5086665;28;19942;-59
2022/12/02 13:07:30;;;;;;;;;;;;;;;31.01;nan;101747.75;5083357;28;19927;-58